Terminal Aerodrome Forecast
Issued by NWS

Home | Current Version | Previous Version | Graphics & Text | Print | Product List | Glossary On
Versions: 1 2 3 4 5 6 7 8 9 10 11 12 13 14 15
000
FTUS43 KPAH 021720
TAFCGI
TAF
KCGI 021720Z 0218/0318 25009KT P6SM VCSH SCT025 OVC070
     FM030000 36003KT P6SM SCT030 BKN070
     FM030600 35003KT 4SM BR SCT007 BKN015
     FM031400 35004KT P6SM BKN020=

USA.gov is the U.S. government's official web portal to all federal, state and local government web resources and services.